Portada
METAR-TAF:

METAR-TAF

Aeroports :

Smith Field

Siloam Springs, Arkansas, Estats Units d'Amèrica

latitud: 36-12N, longitud: 094-29W, altitud: 300 m

Observació

L'informe es va fer fa 43 minuts, a les 11:56 UTC
Vent calma
Temperatura 13°C
Humitat 88%
Pressió 1024 hPa
Visibilitat: 16.1 km
Cel clar

METAR: KSLG 301156Z AUTO 00000KT 10SM CLR 13/11 A3023 RMK AO2 SLP229 6//// 7//// T01330106 10150 20111 53011 TSNO

Hora: 07:39 (12:39 UTC)


TAF: manca

Observacions i pronòstics meteorològics de més de 4000 aeroports (METAR i TAF).

Les estacions disponibles són els punts grocs i vermells al mapa.

Posi el ratolí al punt desitjat per veure el nom de l'estació.

Feu clic per veure les observacions i els pronòstics meteorològics.

Per canviar el mapa: feu clic els botons verds amb una creu de color negre per apropar; al botó verd amb un guió per allunyar la imatge; o en les fletxes verdes per a mapes adjacents.


METAR-TAF: